Portada
METAR-TAF:

METAR-TAF

Aeroports :

Tahlequah, Oklahoma, Estats Units d'Amèrica

latitud: 35-55-44N, longitud: 095-00-16W, altitud: 266 m

Observació

L'informe es va fer fa 22 minuts, a les 18:15 UTC
Vent calma
Temperatura 21°C
Humitat 78%
Pressió 1012 hPa
Visibilitat: 16.1 km
Núvols disperses a una alçada de 2200 ft
Núvols disperses a una alçada de 3300 ft
Cel ennuvolat a una alçada de 4000 ft

METAR: KTQH 261815Z AUTO 00000KT 10SM SCT022 SCT033 BKN040 21/17 A2989 RMK AO2

Hora: 13:37 (18:37 UTC)


TAF: manca

Observacions i pronòstics meteorològics de més de 4000 aeroports (METAR i TAF).

Les estacions disponibles són els punts grocs i vermells al mapa.

Posi el ratolí al punt desitjat per veure el nom de l'estació.

Feu clic per veure les observacions i els pronòstics meteorològics.

Per canviar el mapa: feu clic els botons verds amb una creu de color negre per apropar; al botó verd amb un guió per allunyar la imatge; o en les fletxes verdes per a mapes adjacents.


METAR-TAF: